Latest Weather Observations for Mount William

IDV60801

Issued at 4:12 pm EDT Monday 30 March 2020 (issued every 10 minutes, with the page automatically refreshed every 10 minutes)

About weather observations | Map of weather stations | Latest weather observations for VIC | Other Formats
Station Details ID: 079103 Name: MOUNT WILLIAM Lat: -37.30 Lon: 142.60 Height: 1150.0 m
Data from the previous 72 hours. | See also: Recent months at Mount William
Date/Time
EDT
Temp
°C
App
Temp
°C
Dew
Point
°C
Rel
Hum
%
Delta-T
°C
Wind Press
QNH
hPa
Press
MSL
hPa
Rain since
9am
mm
Dir  Spd
km/h
Gust
km/h
Spd
kts
Gust
kts
30/04:00pm 11.6 9.3 7.3 75 2.2 W 9 17 5 9 - - 0.0
30/03:30pm 11.7 8.8 8.0 78 1.9 W 13 24 7 13 - - 0.0
30/03:00pm 11.9 9.5 7.0 72 2.5 WNW 9 26 5 14 - - 0.0
30/02:30pm 11.8 9.3 6.7 71 2.6 WSW 9 20 5 11 - - 0.0
30/02:00pm 11.3 8.3 7.6 78 1.9 WSW 13 24 7 13 - - 0.0
30/01:30pm 10.7 8.5 7.8 82 1.5 WSW 9 22 5 12 - - 0.0
30/01:00pm 10.0 8.0 7.1 82 1.5 W 7 13 4 7 - - 0.0
30/12:30pm 10.1 8.2 7.5 84 1.3 WSW 7 15 4 8 - - 0.0
30/12:00pm 9.1 7.5 7.9 92 0.6 WSW 6 15 3 8 - - 0.0
30/11:30am 8.6 6.6 7.2 91 0.7 WSW 7 17 4 9 - - 0.0
30/11:00am 8.2 5.4 7.1 93 0.5 W 11 24 6 13 - - 0.0
30/10:30am 7.2 3.7 7.2 100 0.0 WSW 15 28 8 15 - - 0.0
30/10:00am 7.0 3.1 6.9 99 0.0 W 17 26 9 14 - - 0.0
30/09:30am 6.8 3.2 6.8 100 0.0 W 15 24 8 13 - - 0.0
30/09:00am 6.3 2.2 6.3 100 0.0 WSW 17 30 9 16 - - 3.6
30/08:30am 6.0 1.5 6.0 100 0.0 WSW 19 35 10 19 - - 3.6
30/08:00am 6.1 2.0 6.1 100 0.0 W 17 35 9 19 - - 3.6
30/07:30am 6.2 2.1 6.2 100 0.0 W 17 41 9 22 - - 3.6
30/07:00am 6.0 2.6 6.0 100 0.0 W 13 30 7 16 - - 3.6
30/06:30am 6.1 2.0 6.1 100 0.0 W 17 37 9 20 - - 3.6
30/06:00am 6.3 0.1 6.3 100 0.0 WSW 28 39 15 21 - - 3.6
30/05:30am 6.6 0.1 6.6 100 0.0 WSW 30 46 16 25 - - 3.6
30/05:00am 6.8 2.5 6.8 100 0.0 WSW 19 32 10 17 - - 3.6
30/04:30am 7.0 2.5 7.0 100 0.0 WSW 20 37 11 20 - - 3.6
30/04:00am 7.3 3.1 7.3 100 0.0 WSW 19 33 10 18 - - 3.6
30/03:30am 7.7 5.4 7.6 99 0.1 WNW 9 19 5 10 - - 3.6
30/03:00am 7.9 4.4 7.3 96 0.3 WSW 15 32 8 17 - - 3.6
30/02:30am 8.5 4.3 7.4 93 0.6 W 19 33 10 18 - - 3.6
30/02:00am 8.5 5.1 7.7 95 0.4 WSW 15 28 8 15 - - 3.6
30/01:30am 8.8 2.6 7.9 94 0.5 W 30 39 16 21 - - 3.6
30/01:00am 8.9 2.4 8.0 94 0.5 W 32 43 17 23 - - 3.6
30/12:30am 9.3 5.0 7.9 91 0.7 W 20 33 11 18 - - 3.6
30/12:00am 9.0 6.7 7.6 91 0.7 W 9 19 5 10 - - 3.6
 
Date/Time
EDT
Temp
°C
App
Temp
°C
Dew
Point
°C
Rel
Hum
%
Delta-T
°C
Wind Press
QNH
hPa
Press
MSL
hPa
Rain since
9am
mm
Dir  Spd
km/h
Gust
km/h
Spd
kts
Gust
kts
29/11:30pm 9.1 6.5 7.7 91 0.7 WSW 11 24 6 13 - - 3.6
29/11:00pm 9.7 5.0 7.6 87 1.1 W 22 32 12 17 - - 3.6
29/10:30pm 10.7 2.6 7.2 79 1.8 W 39 48 21 26 - - 3.6
29/10:00pm 11.2 3.6 7.7 79 1.8 W 37 48 20 26 - - 3.6
29/09:30pm 12.2 5.1 7.9 75 2.2 W 35 61 19 33 - - 3.6
29/09:28pm 12.2 5.1 7.9 75 2.2 W 35 61 19 33 - - 3.6
29/09:00pm 12.6 6.2 9.2 80 1.8 W 33 48 18 26 - - 3.6
29/08:30pm 13.2 8.6 10.9 86 1.3 W 26 37 14 20 - - 3.6
29/08:00pm 13.8 10.4 11.3 85 1.4 W 20 32 11 17 - - 3.6
29/07:30pm 14.0 9.1 10.0 77 2.2 W 26 35 14 19 - - 3.6
29/07:00pm 14.4 8.0 9.4 72 2.7 W 33 50 18 27 - - 3.6
29/06:30pm 15.2 9.6 10.0 71 2.9 W 30 44 16 24 - - 3.6
29/06:00pm 14.9 8.7 10.1 73 2.7 WNW 33 46 18 25 - - 3.6
29/05:30pm 15.9 10.6 10.0 68 3.3 WNW 28 44 15 24 - - 3.6
29/05:00pm 15.5 9.9 10.3 71 2.9 WNW 30 41 16 22 - - 3.6
29/04:30pm 16.1 9.7 10.6 70 3.1 WNW 35 50 19 27 - - 3.6
29/04:00pm 16.0 9.5 10.3 69 3.2 NW 35 52 19 28 - - 3.6
29/03:30pm 16.4 9.8 10.0 66 3.6 NW 35 56 19 30 - - 3.6
29/03:00pm 15.9 8.1 9.6 66 3.5 NW 41 61 22 33 - - 3.6
29/02:30pm 14.2 5.5 9.8 75 2.4 NW 46 72 25 39 - - 3.6
29/02:00pm 13.3 3.9 8.6 73 2.5 NNW 48 80 26 43 - - 3.6
29/01:30pm 12.4 3.4 8.9 79 1.9 NNW 46 76 25 41 - - 3.6
29/01:04pm 11.7 0.8 9.6 87 1.1 WNW 57 82 31 44 - - 3.4
29/01:03pm 11.6 0.4 9.9 89 0.9 WNW 59 82 32 44 - - 3.4
29/01:00pm 10.9 0.3 10.6 98 0.2 W 57 82 31 44 - - 3.2
29/12:30pm 11.1 1.5 10.8 98 0.2 W 52 83 28 45 - - 1.6
29/12:06pm 11.6 2.9 11.3 98 0.2 W 48 70 26 38 - - 1.4
29/12:00pm 11.5 3.2 11.5 100 0.0 W 46 61 25 33 - - 1.4
29/11:30am 11.7 3.4 11.5 99 0.1 W 46 67 25 36 - - 1.2
29/11:02am 12.9 5.4 12.1 95 0.5 WNW 43 69 23 37 - - 0.2
29/11:00am 13.1 6.0 12.3 95 0.5 WNW 41 69 22 37 - - 0.0
29/10:30am 14.7 7.1 11.7 82 1.7 NNW 43 63 23 34 - - 0.0
29/10:00am 14.6 6.4 11.6 82 1.7 NNW 46 69 25 37 - - 0.0
29/09:30am 14.2 5.2 11.5 84 1.5 NNW 50 78 27 42 - - 0.0
29/09:00am 14.2 5.5 11.4 83 1.6 NNW 48 72 26 39 - - 0.0
29/08:30am 15.3 4.9 11.3 77 2.3 NNW 57 82 31 44 - - 0.0
29/08:00am 14.8 4.9 11.2 79 2.0 N 54 80 29 43 - - 0.0
29/07:30am 14.7 5.2 11.1 79 2.0 N 52 80 28 43 - - 0.0
29/07:00am 14.1 3.3 11.1 82 1.7 N 59 83 32 45 - - 0.0
29/06:30am 14.5 3.4 11.5 82 1.7 N 61 87 33 47 - - 0.0
29/06:00am 14.5 2.5 10.9 79 2.0 N 65 96 35 52 - - 0.0
29/05:30am 14.5 3.5 10.5 77 2.2 N 59 95 32 51 - - 0.0
29/05:00am 14.3 2.8 10.1 76 2.3 N 61 96 33 52 - - 0.0
29/04:30am 13.9 3.5 9.3 74 2.5 N 54 80 29 43 - - 0.0
29/04:00am 13.8 4.8 9.0 73 2.6 N 46 78 25 42 - - 0.0
29/03:30am 13.8 4.6 8.2 69 3.0 NNE 46 74 25 40 - - 0.0
29/03:00am 13.7 4.8 7.5 66 3.2 NNE 44 65 24 35 - - 0.0
29/02:30am 14.1 5.7 7.4 64 3.5 NNE 41 61 22 33 - - 0.0
29/02:02am 14.3 5.4 7.6 64 3.5 NNE 44 65 24 35 - - 0.0
29/02:00am 14.3 5.0 7.6 64 3.5 NNE 46 65 25 35 - - 0.0
29/01:30am 14.5 5.6 7.8 64 3.5 NNE 44 65 24 35 - - 0.0
29/01:00am 14.7 6.1 8.2 65 3.5 NNE 43 61 23 33 - - 0.0
29/12:52am 14.7 7.3 8.2 65 3.5 NNE 37 61 20 33 - - 0.0
29/12:30am 14.8 7.4 8.5 66 3.4 NNE 37 54 20 29 - - 0.0
29/12:00am 15.1 7.5 9.0 67 3.3 NNE 39 61 21 33 - - 0.0
 
Date/Time
EDT
Temp
°C
App
Temp
°C
Dew
Point
°C
Rel
Hum
%
Delta-T
°C
Wind Press
QNH
hPa
Press
MSL
hPa
Rain since
9am
mm
Dir  Spd
km/h
Gust
km/h
Spd
kts
Gust
kts
28/11:30pm 15.2 6.9 9.3 68 3.2 NNE 43 65 23 35 - - 0.0
28/11:00pm 15.3 7.8 9.4 68 3.2 NNE 39 59 21 32 - - 0.0
28/10:30pm 15.5 8.7 9.2 66 3.4 NNE 35 56 19 30 - - 0.0
28/10:00pm 16.0 8.8 9.0 63 3.8 NNE 37 61 20 33 - - 0.0
28/09:30pm 16.4 9.4 8.6 60 4.2 NNE 35 57 19 31 - - 0.0
28/09:05pm 16.7 10.2 8.9 60 4.3 NNE 33 52 18 28 - - 0.0
28/09:00pm 16.6 10.3 8.8 60 4.3 NNE 32 46 17 25 - - 0.0
28/08:38pm 16.8 10.6 9.2 61 4.2 NNE 32 50 17 27 - - 0.0
28/08:30pm 16.8 10.4 9.2 61 4.2 NNE 33 52 18 28 - - 0.0
28/08:00pm 16.7 11.4 9.9 64 3.8 NNE 28 48 15 26 - - 0.0
28/07:46pm 16.6 11.3 10.0 65 3.7 NNE 28 46 15 25 - - 0.0
28/07:30pm 16.5 11.6 10.1 66 3.6 NNE 26 39 14 21 - - 0.0
28/07:00pm 16.8 12.0 10.4 66 3.6 NNE 26 39 14 21 - - 0.0
28/06:42pm 17.2 11.7 10.6 65 3.7 NNE 30 48 16 26 - - 0.0
28/06:30pm 17.2 11.6 10.3 64 3.9 NNE 30 46 16 25 - - 0.0
28/06:14pm 17.7 12.5 10.3 62 4.2 NNE 28 48 15 26 - - 0.0
28/06:00pm 17.8 13.4 10.4 62 4.2 NNE 24 37 13 20 - - 0.0
28/05:30pm 18.5 14.5 10.3 59 4.6 NNE 22 46 12 25 - - 0.0
28/05:00pm 18.2 13.0 10.3 60 4.5 NNE 28 41 15 22 - - 0.0
28/04:30pm 19.4 14.4 10.9 58 4.9 NNE 28 48 15 26 - - 0.0
28/04:27pm 19.4 14.4 10.9 58 4.9 NNE 28 48 15 26 - - 0.0
28/04:00pm 18.4 13.8 11.2 63 4.1 NNE 26 43 14 23 - - 0.0
28/03:30pm 18.7 12.8 10.5 59 4.7 NNE 32 56 17 30 - - 0.0
28/03:25pm 18.4 13.2 10.3 59 4.6 NNE 28 50 15 27 - - 0.0
28/03:00pm 19.3 15.3 10.3 56 5.1 N 22 37 12 20 - - 0.0
28/02:30pm 18.3 13.7 10.9 62 4.2 NNE 26 46 14 25 - - 0.0
28/02:00pm 19.5 15.5 11.8 61 4.5 NNE 24 41 13 22 - - 0.0
28/01:30pm 19.5 14.6 11.3 59 4.8 NNE 28 54 15 29 - - 0.0
28/01:29pm 19.5 14.6 11.3 59 4.8 NNE 28 54 15 29 - - 0.0
28/01:00pm 19.5 15.4 11.5 60 4.7 NNE 24 37 13 20 - - 0.0
28/12:30pm 18.6 13.9 10.7 60 4.5 NNE 26 37 14 20 - - 0.0
28/12:00pm 18.4 14.9 11.0 62 4.2 NNE 20 37 11 20 - - 0.0
28/11:30am 17.9 13.9 10.5 62 4.2 NNE 22 41 12 22 - - 0.0
28/11:00am 17.1 13.4 10.2 64 3.9 N 20 39 11 21 - - 0.0
28/10:48am 16.4 11.1 9.8 65 3.7 N 28 52 15 28 - - 0.0
28/10:30am 16.7 12.2 10.1 65 3.7 N 24 50 13 27 - - 0.0
28/10:00am 15.4 10.7 9.1 66 3.4 N 24 43 13 23 - - 0.0
28/09:30am 14.8 8.7 8.1 64 3.6 N 30 52 16 28 - - 0.0
28/09:00am 14.1 7.5 7.6 65 3.4 N 32 56 17 30 - - 0.0
28/08:30am 13.9 7.6 7.4 65 3.4 N 30 52 16 28 - - 0.0
28/08:00am 13.6 6.8 6.9 64 3.5 N 32 50 17 27 - - 0.0
28/07:30am 13.5 6.6 6.4 62 3.6 N 32 52 17 28 - - 0.0
28/07:00am 13.2 7.0 6.1 62 3.6 NNE 28 43 15 23 - - 0.0
28/06:33am 13.4 6.8 6.0 61 3.7 NNE 30 52 16 28 - - 0.0
28/06:30am 13.4 6.8 6.0 61 3.7 N 30 44 16 24 - - 0.0
28/06:02am 13.2 7.0 6.1 62 3.6 NNE 28 46 15 25 - - 0.0
28/06:00am 13.2 7.0 6.1 62 3.6 NNE 28 43 15 23 - - 0.0
28/05:35am 13.7 6.8 6.3 61 3.8 NNE 32 54 17 29 - - 0.0
28/05:30am 13.7 6.6 6.3 61 3.8 NNE 33 46 18 25 - - 0.0
28/05:01am 13.5 6.6 6.4 62 3.6 NNE 32 50 17 27 - - 0.0
28/05:00am 13.5 6.4 6.4 62 3.6 NNE 33 50 18 27 - - 0.0
28/04:30am 13.6 6.1 6.5 62 3.6 NNE 35 57 19 31 - - 0.0
28/04:00am 13.3 7.2 6.4 63 3.5 NNE 28 50 15 27 - - 0.0
28/03:38am 13.7 7.6 6.6 62 3.6 NNE 28 46 15 25 - - 0.0
28/03:30am 13.6 6.7 6.5 62 3.6 NNE 32 46 17 25 - - 0.0
28/03:06am 13.6 7.5 6.5 62 3.6 NNE 28 46 15 25 - - 0.0
28/03:00am 13.7 7.2 6.3 61 3.8 NNE 30 48 16 26 - - 0.0
28/02:30am 13.7 6.8 6.6 62 3.6 NNE 32 54 17 29 - - 0.0
28/02:04am 13.7 7.6 6.6 62 3.6 NNE 28 50 15 27 - - 0.0
28/02:00am 13.5 7.7 6.4 62 3.6 NNE 26 39 14 21 - - 0.0
28/01:35am 13.6 6.5 6.2 61 3.8 NNE 33 52 18 28 - - 0.0
28/01:30am 13.7 6.8 6.3 61 3.8 NNE 32 46 17 25 - - 0.0
28/01:14am 13.8 6.9 6.4 61 3.8 NNE 32 52 17 28 - - 0.0
28/01:00am 13.9 6.4 6.5 61 3.8 NNE 35 52 19 28 - - 0.0
28/12:45am 14.0 6.9 6.4 60 3.9 NNE 33 52 18 28 - - 0.0
28/12:30am 13.9 6.5 6.7 62 3.7 NNE 35 52 19 28 - - 0.0
28/12:09am 13.9 7.5 7.0 63 3.6 NNE 30 48 16 26 - - 0.0
28/12:00am 13.8 6.8 6.9 63 3.6 NNE 33 50 18 27 - - 0.0
 
Date/Time
EDT
Temp
°C
App
Temp
°C
Dew
Point
°C
Rel
Hum
%
Delta-T
°C
Wind Press
QNH
hPa
Press
MSL
hPa
Rain since
9am
mm
Dir  Spd
km/h
Gust
km/h
Spd
kts
Gust
kts
27/11:30pm 14.1 6.4 7.2 63 3.6 NNE 37 54 20 29 - - 0.0
27/11:14pm 14.2 7.5 7.3 63 3.6 NNE 32 50 17 27 - - 0.0
27/11:00pm 14.5 6.8 7.3 62 3.8 NNE 37 50 20 27 - - 0.0
27/10:30pm 14.7 7.9 7.7 63 3.7 NNE 33 43 18 23 - - 0.0
27/10:00pm 15.1 9.0 8.1 63 3.7 NNE 30 43 16 23 - - 0.0
27/09:30pm 15.3 10.0 8.3 63 3.8 NNE 26 37 14 20 - - 0.0
27/09:00pm 15.2 9.9 8.4 64 3.7 NNE 26 37 14 20 - - 0.0
27/08:30pm 15.7 10.9 8.7 63 3.8 NNE 24 33 13 18 - - 0.0
27/08:00pm 15.8 11.8 9.0 64 3.7 NNE 20 28 11 15 - - 0.0
27/07:30pm 15.7 11.3 8.9 64 3.7 NNE 22 28 12 15 - - 0.0
27/07:00pm 16.0 13.4 9.2 64 3.7 N 13 19 7 10 - - 0.0
27/06:30pm 16.4 13.8 9.3 63 3.9 NNE 13 22 7 12 - - 0.0
27/06:00pm 17.6 14.7 9.8 60 4.4 NNE 15 20 8 11 - - 0.0
27/05:30pm 17.7 14.5 10.1 61 4.3 NNE 17 24 9 13 - - 0.0
27/05:00pm 17.1 13.9 10.0 63 4.0 NNE 17 26 9 14 - - 0.0
27/04:30pm 18.2 14.7 10.1 59 4.6 NNE 19 28 10 15 - - 0.0

Other formats

Comma delimited format used in spreadsheet applications
http://www.bom.gov.au/fwo/IDV60801/IDV60801.94833.axf

JavaScript Object Notation format (JSON) in row-major order
http://www.bom.gov.au/fwo/IDV60801/IDV60801.94833.json

Data quality

Most of these data are generated automatically and are frequently updated. Quality checks on data are not normally performed. It is possible for incorrect values to appear. Refer to information at About Latest Weather Observations and please check the disclaimer before using these data.